Latest Weather Observations for Nhill Aerodrome

IDV60801

Issued at 5:02 pm EST Saturday 22 September 2018 (issued every 10 minutes, with the page automatically refreshed every 10 minutes)

About weather observations | Map of weather stations | Latest weather observations for VIC | Other Formats
Station Details ID: 078015 Name: NHILL AERODROME Lat: -36.31 Lon: 141.65 Height: 138.9 m
Data from the previous 72 hours. | See also: Recent months at Nhill Aerodrome
Date/Time
EST
Temp
°C
App
Temp
°C
Dew
Point
°C
Rel
Hum
%
Delta-T
°C
Wind Press
QNH
hPa
Press
MSL
hPa
Rain since
9am
mm
Dir  Spd
km/h
Gust
km/h
Spd
kts
Gust
kts
22/05:00pm 19.3 14.7 9.5 53 5.2 SW 24 32 13 17 1025.6 1025.7 0.0
22/04:30pm 20.5 14.5 7.2 42 6.8 WSW 28 35 15 19 1025.3 1025.4 0.0
22/04:00pm 20.5 14.3 6.1 39 7.2 WSW 28 33 15 18 1025.3 1025.4 0.0
22/03:30pm 20.9 14.9 7.2 41 7.1 WSW 28 41 15 22 1025.2 1025.3 0.0
22/03:00pm 21.0 15.2 8.0 43 6.8 W 28 41 15 22 1025.4 1025.5 0.0
22/02:30pm 21.0 16.1 8.3 44 6.7 WSW 24 37 13 20 1025.5 1025.6 0.0
22/02:00pm 20.3 16.2 7.7 44 6.5 W 19 35 10 19 1025.5 1025.6 0.0
22/01:30pm 21.0 16.8 8.3 44 6.7 W 20 28 11 15 1026.2 1026.3 0.0
22/01:00pm 20.0 15.6 7.4 44 6.4 W 20 32 11 17 1026.5 1026.6 0.0
22/12:30pm 19.3 15.3 8.3 49 5.7 WSW 19 28 10 15 1027.1 1027.2 0.0
22/12:00pm 19.2 15.6 8.5 50 5.6 W 17 30 9 16 1027.5 1027.6 0.0
22/11:30am 18.4 14.9 8.7 53 5.1 WSW 17 24 9 13 1027.5 1027.6 0.0
22/11:00am 17.3 14.7 9.2 59 4.2 W 13 19 7 10 1027.7 1027.8 0.0
22/10:30am 16.3 13.6 9.0 62 3.8 W 13 17 7 9 1028.1 1028.2 0.0
22/10:00am 15.4 13.5 9.1 66 3.2 NW 9 13 5 7 1028.4 1028.4 0.0
22/09:30am 13.6 12.6 10.4 81 1.7 SW 6 9 3 5 1028.4 1028.4 0.0
22/09:00am 10.9 10.3 10.3 96 0.3 S 4 6 2 3 1028.0 1028.1 0.0
22/08:30am 8.6 7.4 8.2 97 0.2 S 4 6 2 3 1028.1 1028.2 0.0
22/08:00am 6.5 5.6 6.1 97 0.2 CALM 0 0 0 0 1027.6 1027.7 0.0
22/07:30am 4.0 2.6 3.3 95 0.3 CALM 0 0 0 0 1027.5 1027.6 0.0
22/07:00am 2.4 0.6 1.5 94 0.3 CALM 0 0 0 0 1027.1 1027.2 0.0
22/06:30am 2.1 -0.5 1.2 94 0.3 S 4 7 2 4 1026.7 1026.8 0.0
22/06:00am 2.4 0.6 1.5 94 0.3 CALM 0 0 0 0 1026.8 1026.9 0.0
22/05:30am 2.3 0.5 1.3 93 0.4 CALM 0 0 0 0 1026.8 1026.9 0.0
22/05:00am 2.4 0.6 1.4 93 0.4 CALM 0 0 0 0 1026.6 1026.7 0.0
22/04:30am 3.1 1.4 2.1 93 0.4 CALM 0 0 0 0 1026.5 1026.6 0.0
22/04:00am 3.1 1.4 2.1 93 0.4 CALM 0 0 0 0 1026.2 1026.3 0.0
22/03:30am 3.4 1.8 2.2 92 0.5 CALM 0 0 0 0 1026.5 1026.6 0.0
22/03:00am 3.2 1.5 2.0 92 0.5 CALM 0 0 0 0 1026.5 1026.6 0.0
22/02:30am 4.7 3.3 3.5 92 0.5 CALM 0 0 0 0 1026.6 1026.7 0.0
22/02:00am 5.2 3.9 4.0 92 0.5 CALM 0 0 0 0 1026.8 1026.9 0.0
22/01:30am 6.4 4.6 5.2 92 0.5 S 4 6 2 3 1027.0 1027.1 0.0
22/01:00am 6.7 4.0 5.5 92 0.5 S 9 9 5 5 1027.2 1027.3 0.0
22/12:30am 6.3 4.0 4.9 91 0.6 S 6 7 3 4 1027.3 1027.4 0.0
22/12:00am 6.8 4.4 5.4 91 0.6 S 7 7 4 4 1027.3 1027.4 0.0
 
Date/Time
EST
Temp
°C
App
Temp
°C
Dew
Point
°C
Rel
Hum
%
Delta-T
°C
Wind Press
QNH
hPa
Press
MSL
hPa
Rain since
9am
mm
Dir  Spd
km/h
Gust
km/h
Spd
kts
Gust
kts
21/11:30pm 6.7 4.3 5.2 90 0.7 S 7 9 4 5 1027.4 1027.5 0.0
21/11:00pm 6.4 3.1 4.6 88 0.8 S 11 11 6 6 1027.5 1027.6 0.0
21/10:30pm 7.2 4.0 5.0 86 1.0 S 11 13 6 7 1027.7 1027.8 0.0
21/10:00pm 8.5 5.5 6.0 84 1.1 S 11 13 6 7 1027.5 1027.6 0.0
21/09:30pm 9.1 6.6 6.4 83 1.3 S 9 9 5 5 1027.5 1027.6 0.0
21/09:00pm 9.4 6.9 6.7 83 1.3 S 9 9 5 5 1027.5 1027.6 0.0
21/08:30pm 9.5 6.6 6.6 82 1.4 S 11 11 6 6 1027.5 1027.6 0.0
21/08:00pm 11.1 9.3 7.2 77 1.9 WSW 6 7 3 4 1027.2 1027.3 0.0
21/07:30pm 12.5 10.2 7.6 72 2.4 WSW 9 9 5 5 1026.9 1027.0 0.0
21/07:00pm 13.1 10.9 7.8 70 2.6 WSW 9 9 5 5 1026.6 1026.7 0.0
21/06:30pm 13.7 11.5 7.9 68 2.9 WSW 9 11 5 6 1026.3 1026.4 0.0
21/06:00pm 15.6 12.6 7.9 60 3.9 WSW 13 19 7 10 1026.1 1026.2 0.0
21/05:30pm 16.7 13.0 7.9 56 4.5 WSW 17 24 9 13 1025.8 1025.9 0.0
21/05:00pm 17.3 14.0 7.9 54 4.8 WSW 15 22 8 12 1025.8 1025.9 0.0
21/04:30pm 17.5 13.4 7.8 53 4.9 WSW 19 28 10 15 1025.7 1025.8 0.0
21/04:00pm 18.1 13.9 8.4 53 5.0 WSW 20 30 11 16 1025.9 1026.0 0.0
21/03:30pm 17.4 13.1 7.7 53 4.9 W 20 28 11 15 1026.1 1026.2 0.0
21/03:00pm 17.2 12.6 8.1 55 4.6 WNW 22 32 12 17 1026.0 1026.1 0.0
21/02:30pm 16.6 12.5 7.8 56 4.5 W 19 30 10 16 1026.3 1026.4 0.0
21/02:00pm 16.7 12.0 7.6 55 4.6 W 22 32 12 17 1026.7 1026.8 0.0
21/01:30pm 17.3 12.9 7.6 53 4.9 W 20 41 11 22 1027.0 1027.1 0.0
21/01:00pm 17.1 12.0 7.7 54 4.7 WSW 24 30 13 16 1027.5 1027.6 0.0
21/12:30pm 16.2 11.0 7.4 56 4.4 W 24 32 13 17 1027.7 1027.8 0.0
21/12:00pm 16.3 11.9 7.3 55 4.5 W 20 30 11 16 1027.9 1028.0 0.0
21/11:30am 15.1 10.2 6.9 58 4.0 W 22 32 12 17 1028.1 1028.2 0.0
21/11:00am 14.5 9.7 7.3 62 3.5 WNW 22 28 12 15 1028.3 1028.3 0.0
21/10:30am 14.1 10.4 8.1 67 3.0 W 17 28 9 15 1028.4 1028.4 0.0
21/10:00am 13.7 9.6 7.9 68 2.9 WNW 19 26 10 14 1028.4 1028.4 0.0
21/09:30am 13.3 8.9 7.5 68 2.9 W 20 24 11 13 1028.1 1028.2 0.0
21/09:00am 12.9 9.1 7.4 69 2.7 W 17 24 9 13 1028.1 1028.2 0.0
21/08:30am 12.3 10.0 9.0 80 1.7 NW 11 13 6 7 1027.9 1028.0 0.0
21/08:00am 10.7 8.4 9.0 89 0.8 NNW 11 13 6 7 1027.6 1027.7 0.0
21/07:30am 9.9 8.3 8.7 92 0.6 NW 7 9 4 5 1027.4 1027.5 0.0
21/07:00am 9.3 7.7 8.1 92 0.6 NW 6 7 3 4 1027.0 1027.1 0.0
21/06:30am 9.4 8.6 8.2 92 0.6 NNW 2 9 1 5 1026.7 1026.8 0.0
21/06:00am 9.5 7.8 8.3 92 0.6 NNW 7 9 4 5 1026.5 1026.6 0.0
21/05:30am 9.4 7.8 8.0 91 0.7 NW 6 9 3 5 1026.4 1026.5 0.0
21/05:00am 9.6 7.8 8.0 90 0.8 WNW 7 13 4 7 1026.2 1026.3 0.0
21/04:30am 9.6 8.7 7.9 89 0.8 W 2 6 1 3 1025.9 1026.0 0.0
21/04:00am 9.7 9.2 7.8 88 0.9 CALM 0 6 0 3 1025.9 1026.0 0.0
21/03:30am 9.8 7.6 7.7 87 1.0 W 9 13 5 7 1025.9 1026.0 0.0
21/03:00am 10.1 7.8 7.5 84 1.2 W 9 11 5 6 1025.9 1026.0 0.0
21/02:30am 10.3 8.9 7.4 82 1.4 WSW 4 6 2 3 1026.0 1026.1 0.0
21/02:00am 10.4 8.0 6.9 79 1.7 W 9 13 5 7 1026.2 1026.3 0.0
21/01:30am 10.5 8.5 7.0 79 1.7 W 7 9 4 5 1026.3 1026.4 0.0
21/01:00am 10.7 8.6 6.8 77 1.8 WSW 7 9 4 5 1026.2 1026.3 0.0
21/12:30am 10.8 8.7 6.6 75 2.0 WSW 7 9 4 5 1026.2 1026.3 0.0
21/12:00am 11.0 7.3 6.4 73 2.2 WSW 15 22 8 12 1026.1 1026.2 0.0
 
Date/Time
EST
Temp
°C
App
Temp
°C
Dew
Point
°C
Rel
Hum
%
Delta-T
°C
Wind Press
QNH
hPa
Press
MSL
hPa
Rain since
9am
mm
Dir  Spd
km/h
Gust
km/h
Spd
kts
Gust
kts
20/11:30pm 11.0 6.9 6.4 73 2.2 WSW 17 20 9 11 1026.3 1026.4 0.0
20/11:00pm 11.1 7.8 6.5 73 2.2 SW 13 19 7 10 1026.1 1026.2 0.0
20/10:30pm 11.0 7.4 6.6 74 2.1 WSW 15 19 8 10 1026.2 1026.3 0.0
20/10:00pm 11.0 8.1 6.6 74 2.1 WSW 11 15 6 8 1026.1 1026.2 0.0
20/09:30pm 11.2 7.9 6.5 73 2.2 WSW 13 20 7 11 1025.9 1026.0 0.0
20/09:00pm 11.3 7.2 6.4 72 2.3 W 17 22 9 12 1025.6 1025.7 0.0
20/08:30pm 11.0 7.8 6.7 75 2.0 WSW 13 17 7 9 1025.4 1025.5 0.0
20/08:00pm 9.6 6.2 6.1 79 1.6 W 13 19 7 10 1025.2 1025.3 0.0
20/07:30pm 10.5 6.8 6.3 75 2.0 WSW 15 19 8 10 1024.8 1024.9 0.0
20/07:00pm 11.0 7.3 6.4 73 2.2 WSW 15 19 8 10 1024.3 1024.4 0.0
20/06:30pm 12.3 7.3 6.4 67 2.8 W 22 28 12 15 1023.8 1023.9 0.0
20/06:00pm 14.2 9.5 6.1 58 3.9 WSW 20 28 11 15 1023.4 1023.5 0.0
20/05:30pm 14.5 9.8 6.1 57 4.1 WSW 20 28 11 15 1022.9 1022.9 0.0
20/05:00pm 14.9 10.4 6.2 56 4.2 WSW 19 24 10 13 1022.6 1022.6 0.0
20/04:30pm 15.1 10.7 7.4 60 3.8 W 20 28 11 15 1022.3 1022.3 0.0
20/04:00pm 15.5 9.9 7.0 57 4.2 WSW 26 32 14 17 1022.1 1022.1 0.0
20/03:30pm 16.1 10.6 7.6 57 4.3 W 26 35 14 19 1022.3 1022.3 0.0
20/03:00pm 16.6 11.3 6.7 52 4.9 WSW 24 33 13 18 1022.2 1022.2 0.0
20/02:30pm 15.1 11.6 8.6 65 3.3 WSW 17 22 9 12 1022.2 1022.2 0.0
20/02:00pm 15.8 11.2 8.1 60 3.9 W 22 30 12 16 1022.3 1022.3 0.0
20/01:30pm 15.7 12.0 8.0 60 3.9 W 17 26 9 14 1022.5 1022.5 0.0
20/01:00pm 14.2 9.0 7.3 63 3.4 WNW 24 35 13 19 1022.7 1022.7 0.0
20/12:30pm 14.7 10.2 7.0 60 3.8 WNW 20 33 11 18 1022.8 1022.8 0.0
20/12:00pm 14.1 9.0 7.6 65 3.2 W 24 30 13 16 1023.1 1023.1 0.0
20/11:30am 14.6 10.2 7.4 62 3.6 WNW 20 28 11 15 1023.0 1023.0 0.0
20/11:00am 13.3 8.7 6.4 63 3.3 WNW 20 28 11 15 1023.1 1023.1 0.0
20/10:30am 12.9 9.1 7.6 70 2.6 WNW 17 22 9 12 1023.1 1023.1 0.0
20/10:00am 12.7 8.8 8.6 76 2.0 NW 19 26 10 14 1023.0 1023.0 0.0
20/09:30am 10.3 6.8 8.6 89 0.8 NW 17 22 9 12 1022.7 1022.7 0.0
20/09:00am 8.9 5.2 8.1 95 0.4 NW 17 20 9 11 1022.3 1022.3 0.6
20/08:30am 6.8 3.4 6.1 95 0.3 NNW 13 19 7 10 1022.0 1022.0 0.6
20/08:00am 4.8 2.2 4.1 95 0.3 NNW 7 11 4 6 1022.1 1022.1 0.6
20/07:30am 3.0 0.0 2.3 95 0.3 NNW 7 9 4 5 1021.8 1021.8 0.6
20/07:00am 2.4 -0.7 1.5 94 0.3 NNW 7 9 4 5 1021.3 1021.3 0.6
20/06:30am 2.5 -0.6 1.6 94 0.3 NNW 7 9 4 5 1020.9 1020.9 0.6
20/06:00am 2.2 -0.9 1.3 94 0.3 NNW 7 11 4 6 1020.8 1020.8 0.6
20/05:30am 1.3 -1.8 0.4 94 0.3 NNW 6 7 3 4 1020.3 1020.4 0.6
20/05:00am 2.5 -0.6 1.6 94 0.3 NNW 7 9 4 5 1020.1 1020.2 0.6
20/04:30am 2.3 -0.8 1.4 94 0.3 NNW 7 9 4 5 1019.8 1019.9 0.6
20/04:00am 1.2 -1.9 0.2 93 0.4 NNW 6 7 3 4 1019.6 1019.7 0.6
20/03:30am 1.2 -1.9 0.2 93 0.4 NW 6 7 3 4 1019.5 1019.6 0.6
20/03:00am 2.1 -0.9 1.1 93 0.4 NW 6 7 3 4 1019.7 1019.8 0.6
20/02:30am 3.0 0.0 1.8 92 0.5 WNW 7 13 4 7 1019.8 1019.9 0.6
20/02:00am 3.1 0.1 1.9 92 0.5 WNW 7 9 4 5 1020.0 1020.1 0.6
20/01:30am 3.6 0.8 2.3 91 0.5 WNW 6 7 3 4 1020.2 1020.3 0.6
20/01:00am 3.4 1.4 2.1 91 0.5 WNW 2 7 1 4 1020.1 1020.2 0.6
20/12:30am 4.0 1.3 2.5 90 0.6 WNW 6 7 3 4 1019.9 1020.0 0.6
20/12:00am 4.2 1.3 2.7 90 0.6 W 7 9 4 5 1019.8 1019.9 0.6
 
Date/Time
EST
Temp
°C
App
Temp
°C
Dew
Point
°C
Rel
Hum
%
Delta-T
°C
Wind Press
QNH
hPa
Press
MSL
hPa
Rain since
9am
mm
Dir  Spd
km/h
Gust
km/h
Spd
kts
Gust
kts
19/11:30pm 4.9 2.3 3.2 89 0.7 W 6 7 3 4 1019.7 1019.8 0.6
19/11:00pm 5.0 2.4 3.2 88 0.7 W 6 7 3 4 1019.7 1019.8 0.6
19/10:30pm 5.2 2.0 3.2 87 0.8 WSW 9 11 5 6 1019.7 1019.8 0.6
19/10:00pm 5.8 2.3 3.6 86 0.9 W 11 13 6 7 1019.5 1019.6 0.6
19/09:30pm 6.5 2.4 4.2 85 1.0 W 15 17 8 9 1019.2 1019.3 0.6
19/09:00pm 6.9 3.6 4.6 85 1.0 W 11 13 6 7 1019.0 1019.1 0.6
19/08:30pm 7.4 4.2 4.9 84 1.1 W 11 13 6 7 1018.9 1019.0 0.6
19/08:00pm 8.3 6.0 5.8 84 1.1 WSW 7 9 4 5 1018.5 1018.6 0.6
19/07:30pm 8.9 4.7 5.8 81 1.4 WSW 17 20 9 11 1018.3 1018.4 0.6
19/07:00pm 9.2 6.8 5.4 77 1.7 WSW 7 11 4 6 1017.9 1018.0 0.6
19/06:30pm 10.3 7.7 5.9 74 2.0 SW 9 15 5 8 1017.5 1017.6 0.6
19/06:00pm 11.0 9.0 6.2 72 2.3 SSW 6 7 3 4 1017.0 1017.0 0.6
19/05:30pm 10.9 9.0 6.6 75 2.0 SSW 6 9 3 5 1016.7 1016.7 0.6

Other Formats:

Comma delimited format used in spreadsheet applications
http://www.bom.gov.au/fwo/IDV60801/IDV60801.94827.axf

JavaScript Object Notation format (JSON) in row-major order
http://www.bom.gov.au/fwo/IDV60801/IDV60801.94827.json